AFL1486 UUEE-UNKL
Flight info
| Callsign | AFL1486 |
|---|---|
| Flight time | 4h 7m |
| Altitude | 35000 |
| Route | N0450F350 RILPO T753 RANTO N869 SONAT P865 ADANU N604 PIGUR T580 LITUN N869 KELOK B115 RANET |
| Aircraft | A320/M-VGDW/C |
Departure
| Time | 2026-05-05 12:02 |
|---|---|
| Airport | Sheremetyevo International Airport (UUEE) |
Arrival
| Time | 2026-05-05 16:09 |
|---|---|
| Airport | Krasnoyarsk International Airport (UNKL) |
| Time | Latitude | Longitude | Altitude | Speed | Heading |
|---|---|---|---|---|---|
| 2026-05-05 11:21 | 55.97840 | 37.41637 | 639 ft | 0 kts | 75° |
| 2026-05-05 11:49 | 55.97837 | 37.41619 | 639 ft | 3 kts | 76° |
| 2026-05-05 11:49 | 55.97832 | 37.41585 | 646 ft | 3 kts | 79° |
| 2026-05-05 11:49 | 55.97829 | 37.41549 | 640 ft | 3 kts | 90° |
| 2026-05-05 11:49 | 55.97832 | 37.41517 | 641 ft | 3 kts | 129° |
| 2026-05-05 11:50 | 55.97839 | 37.41505 | 645 ft | 0 kts | 165° |
| 2026-05-05 11:53 | 55.97836 | 37.41506 | 639 ft | 0 kts | 165° |
| 2026-05-05 11:53 | 55.97814 | 37.41516 | 640 ft | 6 kts | 165° |
| 2026-05-05 11:54 | 55.97781 | 37.41531 | 639 ft | 4 kts | 165° |
| 2026-05-05 11:54 | 55.97734 | 37.41553 | 639 ft | 8 kts | 165° |
| 2026-05-05 11:54 | 55.97687 | 37.41575 | 639 ft | 6 kts | 165° |
| 2026-05-05 11:54 | 55.97651 | 37.41593 | 643 ft | 7 kts | 165° |
| 2026-05-05 11:55 | 55.97610 | 37.41636 | 642 ft | 9 kts | 123° |
| 2026-05-05 11:55 | 55.97616 | 37.41733 | 639 ft | 7 kts | 73° |
| 2026-05-05 11:55 | 55.97637 | 37.41870 | 642 ft | 18 kts | 75° |
| 2026-05-05 11:55 | 55.97667 | 37.42070 | 643 ft | 15 kts | 75° |
| 2026-05-05 11:56 | 55.97692 | 37.42241 | 646 ft | 13 kts | 75° |
| 2026-05-05 11:56 | 55.97716 | 37.42399 | 639 ft | 16 kts | 75° |
| 2026-05-05 11:56 | 55.97744 | 37.42589 | 639 ft | 15 kts | 75° |
| 2026-05-05 11:56 | 55.97769 | 37.42754 | 641 ft | 13 kts | 75° |
| 2026-05-05 11:57 | 55.97790 | 37.42896 | 642 ft | 13 kts | 75° |
| 2026-05-05 11:57 | 55.97825 | 37.43130 | 642 ft | 21 kts | 75° |
| 2026-05-05 11:57 | 55.97860 | 37.43360 | 639 ft | 18 kts | 75° |
| 2026-05-05 11:57 | 55.97889 | 37.43560 | 639 ft | 15 kts | 75° |
| 2026-05-05 11:58 | 55.97914 | 37.43730 | 641 ft | 13 kts | 75° |
| 2026-05-05 11:58 | 55.97936 | 37.43877 | 647 ft | 11 kts | 75° |
| 2026-05-05 11:58 | 55.97947 | 37.44000 | 642 ft | 9 kts | 104° |
| 2026-05-05 11:58 | 55.97912 | 37.44040 | 642 ft | 2 kts | 166° |
| 2026-05-05 11:59 | 55.97901 | 37.44045 | 642 ft | 3 kts | 166° |
| 2026-05-05 11:59 | 55.97850 | 37.44067 | 640 ft | 8 kts | 165° |
| 2026-05-05 11:59 | 55.97802 | 37.44074 | 639 ft | 8 kts | 199° |
| 2026-05-05 11:59 | 55.97780 | 37.44006 | 642 ft | 0 kts | 256° |
| 2026-05-05 12:00 | 55.97775 | 37.43976 | 640 ft | 18 kts | 256° |
| 2026-05-05 12:00 | 55.97771 | 37.43944 | 642 ft | 0 kts | 256° |
| 2026-05-05 12:01 | 55.97751 | 37.43809 | 641 ft | 41 kts | 255° |
| 2026-05-05 12:01 | 55.97618 | 37.42922 | 646 ft | 104 kts | 255° |
| 2026-05-05 12:01 | 55.97387 | 37.41371 | 648 ft | 152 kts | 255° |
| 2026-05-05 12:02 | 55.97083 | 37.39345 | 832 ft | 176 kts | 255° |
| 2026-05-05 12:02 | 55.96785 | 37.37285 | 1688 ft | 170 kts | 256° |
| 2026-05-05 12:02 | 55.96478 | 37.35271 | 2467 ft | 166 kts | 252° |
| 2026-05-05 12:02 | 55.96159 | 37.33293 | 3122 ft | 165 kts | 253° |
| 2026-05-05 12:03 | 55.95842 | 37.31333 | 3756 ft | 164 kts | 253° |
| 2026-05-05 12:03 | 55.95645 | 37.30117 | 4015 ft | 171 kts | 254° |
| 2026-05-05 12:03 | 55.95514 | 37.29347 | 4099 ft | 179 kts | 253° |
| 2026-05-05 12:03 | 55.95008 | 37.26238 | 4412 ft | 211 kts | 254° |
| 2026-05-05 12:04 | 55.94591 | 37.23581 | 4723 ft | 235 kts | 254° |
| 2026-05-05 12:04 | 55.94146 | 37.20726 | 5295 ft | 245 kts | 255° |
| 2026-05-05 12:04 | 55.93682 | 37.17775 | 6076 ft | 248 kts | 255° |
| 2026-05-05 12:04 | 55.93302 | 37.15367 | 6691 ft | 250 kts | 255° |
| 2026-05-05 12:05 | 55.92829 | 37.12374 | 7419 ft | 252 kts | 255° |
| 2026-05-05 12:05 | 55.92355 | 37.09366 | 8142 ft | 254 kts | 255° |
| 2026-05-05 12:05 | 55.91877 | 37.06339 | 8898 ft | 255 kts | 256° |
| 2026-05-05 12:05 | 55.91662 | 37.03221 | 9621 ft | 257 kts | 274° |
| 2026-05-05 12:06 | 55.92176 | 37.00154 | 10278 ft | 264 kts | 296° |
| 2026-05-05 12:06 | 55.93401 | 36.97644 | 10899 ft | 277 kts | 318° |
| 2026-05-05 12:06 | 55.94995 | 36.95661 | 11535 ft | 281 kts | 320° |
| 2026-05-05 12:06 | 55.96634 | 36.93716 | 12175 ft | 287 kts | 326° |
| 2026-05-05 12:07 | 55.98548 | 36.92520 | 12770 ft | 300 kts | 346° |
| 2026-05-05 12:07 | 56.00676 | 36.92582 | 13388 ft | 315 kts | 7° |
| 2026-05-05 12:07 | 56.02796 | 36.94062 | 13593 ft | 344 kts | 30° |
| 2026-05-05 12:07 | 56.04714 | 36.96830 | 13767 ft | 364 kts | 37° |
| 2026-05-05 12:08 | 56.06679 | 36.99856 | 13933 ft | 380 kts | 37° |
| 2026-05-05 12:08 | 56.08675 | 37.02951 | 14361 ft | 386 kts | 38° |
| 2026-05-05 12:08 | 56.10717 | 37.06122 | 14865 ft | 390 kts | 38° |
| 2026-05-05 12:08 | 56.12778 | 37.09320 | 15393 ft | 393 kts | 38° |
| 2026-05-05 12:09 | 56.14855 | 37.12538 | 15900 ft | 396 kts | 38° |
| 2026-05-05 12:09 | 56.16953 | 37.15778 | 16431 ft | 400 kts | 37° |
| 2026-05-05 12:09 | 56.19070 | 37.19042 | 16935 ft | 403 kts | 37° |
| 2026-05-05 12:09 | 56.21201 | 37.22330 | 17418 ft | 406 kts | 38° |
| 2026-05-05 12:10 | 56.23353 | 37.25664 | 17906 ft | 409 kts | 38° |
| 2026-05-05 12:10 | 56.24813 | 37.27932 | 18225 ft | 412 kts | 38° |
| 2026-05-05 12:10 | 56.27003 | 37.31340 | 18648 ft | 414 kts | 38° |
| 2026-05-05 12:10 | 56.29189 | 37.34746 | 19074 ft | 417 kts | 38° |
| 2026-05-05 12:11 | 56.31389 | 37.38173 | 19484 ft | 420 kts | 38° |
| 2026-05-05 12:11 | 56.33604 | 37.41624 | 19909 ft | 423 kts | 38° |
| 2026-05-05 12:11 | 56.35837 | 37.45108 | 20326 ft | 425 kts | 38° |
| 2026-05-05 12:11 | 56.37586 | 37.47841 | 20640 ft | 427 kts | 38° |
| 2026-05-05 12:14 | 56.37699 | 37.48018 | 20661 ft | 427 kts | 37° |
| 2026-05-05 12:14 | 56.39201 | 37.50346 | 20932 ft | 429 kts | 37° |
| 2026-05-05 12:14 | 56.42201 | 37.55038 | 21460 ft | 433 kts | 38° |
| 2026-05-05 12:14 | 56.44474 | 37.58619 | 21848 ft | 435 kts | 38° |
| 2026-05-05 12:15 | 56.46764 | 37.62242 | 22257 ft | 438 kts | 38° |
| 2026-05-05 12:15 | 56.49059 | 37.65882 | 22655 ft | 441 kts | 38° |
| 2026-05-05 12:15 | 56.51377 | 37.69563 | 23057 ft | 444 kts | 38° |
| 2026-05-05 12:15 | 56.53705 | 37.73259 | 23442 ft | 447 kts | 38° |
| 2026-05-05 12:16 | 56.55289 | 37.75771 | 23676 ft | 449 kts | 38° |
| 2026-05-05 12:16 | 56.57647 | 37.79515 | 24004 ft | 451 kts | 37° |
| 2026-05-05 12:16 | 56.60015 | 37.83277 | 24337 ft | 454 kts | 37° |
| 2026-05-05 12:16 | 56.62396 | 37.87068 | 24661 ft | 457 kts | 37° |
| 2026-05-05 12:17 | 56.64784 | 37.90876 | 24987 ft | 459 kts | 37° |
| 2026-05-05 12:17 | 56.67193 | 37.94727 | 25318 ft | 462 kts | 37° |
| 2026-05-05 12:17 | 56.69608 | 37.98598 | 25627 ft | 464 kts | 37° |
| 2026-05-05 12:17 | 56.72035 | 38.02493 | 25943 ft | 467 kts | 37° |
| 2026-05-05 12:18 | 56.74474 | 38.06420 | 26257 ft | 469 kts | 37° |
| 2026-05-05 12:18 | 56.76919 | 38.10363 | 26560 ft | 471 kts | 37° |
| 2026-05-05 12:18 | 56.79383 | 38.14335 | 26871 ft | 473 kts | 37° |
| 2026-05-05 12:18 | 56.81854 | 38.18326 | 27178 ft | 476 kts | 37° |
| 2026-05-05 12:19 | 56.84332 | 38.22348 | 27482 ft | 478 kts | 37° |
| 2026-05-05 12:19 | 56.86823 | 38.26394 | 27774 ft | 481 kts | 37° |
| 2026-05-05 12:19 | 56.89338 | 38.30449 | 28056 ft | 482 kts | 37° |
| 2026-05-05 12:19 | 56.91885 | 38.34465 | 28338 ft | 484 kts | 36° |
| 2026-05-05 12:20 | 56.94422 | 38.38408 | 28615 ft | 486 kts | 36° |
| 2026-05-05 12:20 | 56.97043 | 38.42463 | 28882 ft | 488 kts | 36° |
| 2026-05-05 12:20 | 56.99609 | 38.46444 | 29134 ft | 490 kts | 36° |
| 2026-05-05 12:20 | 57.02171 | 38.50609 | 29385 ft | 495 kts | 43° |
| 2026-05-05 12:21 | 57.04262 | 38.55682 | 29630 ft | 503 kts | 57° |
| 2026-05-05 12:21 | 57.05990 | 38.61286 | 29906 ft | 505 kts | 58° |
| 2026-05-05 12:21 | 57.07702 | 38.66914 | 30218 ft | 504 kts | 59° |
| 2026-05-05 12:21 | 57.09399 | 38.72533 | 30520 ft | 503 kts | 59° |
| 2026-05-05 12:22 | 57.11093 | 38.78168 | 30803 ft | 502 kts | 59° |
| 2026-05-05 12:22 | 57.12782 | 38.83788 | 31087 ft | 501 kts | 59° |
| 2026-05-05 12:22 | 57.14466 | 38.89395 | 31363 ft | 500 kts | 59° |
| 2026-05-05 12:22 | 57.16152 | 38.95008 | 31636 ft | 500 kts | 59° |
| 2026-05-05 12:23 | 57.17828 | 39.00595 | 31910 ft | 499 kts | 59° |
| 2026-05-05 12:23 | 57.19503 | 39.06199 | 32190 ft | 498 kts | 59° |
| 2026-05-05 12:23 | 57.21171 | 39.11796 | 32464 ft | 497 kts | 59° |
| 2026-05-05 12:23 | 57.22837 | 39.17382 | 32741 ft | 497 kts | 59° |
| 2026-05-05 12:24 | 57.24501 | 39.22966 | 33006 ft | 496 kts | 60° |
| 2026-05-05 12:24 | 57.26159 | 39.28555 | 33258 ft | 496 kts | 60° |
| 2026-05-05 12:24 | 57.27806 | 39.34130 | 33513 ft | 495 kts | 60° |
| 2026-05-05 12:24 | 57.29455 | 39.39728 | 33775 ft | 495 kts | 60° |
| 2026-05-05 12:25 | 57.31093 | 39.45305 | 33999 ft | 494 kts | 60° |
| 2026-05-05 12:25 | 57.32726 | 39.50890 | 34224 ft | 493 kts | 60° |
| 2026-05-05 12:25 | 57.34354 | 39.56467 | 34450 ft | 492 kts | 60° |
| 2026-05-05 12:25 | 57.35976 | 39.62038 | 34663 ft | 491 kts | 60° |
| 2026-05-05 12:26 | 57.37594 | 39.67609 | 34767 ft | 490 kts | 60° |
| 2026-05-05 12:26 | 57.39206 | 39.73164 | 34787 ft | 489 kts | 60° |
| 2026-05-05 12:26 | 57.42421 | 39.84263 | 34787 ft | 488 kts | 60° |
| 2026-05-05 12:27 | 57.45623 | 39.95363 | 34781 ft | 488 kts | 60° |
| 2026-05-05 12:27 | 57.48812 | 40.06488 | 34781 ft | 488 kts | 60° |
| 2026-05-05 12:28 | 57.51982 | 40.17625 | 34784 ft | 487 kts | 60° |
| 2026-05-05 12:28 | 57.55148 | 40.28789 | 34784 ft | 487 kts | 60° |
| 2026-05-05 12:29 | 57.58303 | 40.39954 | 34786 ft | 487 kts | 60° |
| 2026-05-05 12:29 | 57.61449 | 40.51133 | 34785 ft | 487 kts | 60° |
| 2026-05-05 12:30 | 57.64587 | 40.62339 | 34783 ft | 487 kts | 61° |
| 2026-05-05 12:30 | 57.67706 | 40.73549 | 34783 ft | 487 kts | 61° |
| 2026-05-05 12:31 | 57.70813 | 40.84785 | 34785 ft | 486 kts | 61° |
| 2026-05-05 12:31 | 57.73906 | 40.96031 | 34779 ft | 486 kts | 61° |
| 2026-05-05 12:32 | 57.76975 | 41.07299 | 34782 ft | 486 kts | 63° |
| 2026-05-05 12:32 | 57.79719 | 41.18872 | 34784 ft | 486 kts | 66° |
| 2026-05-05 12:33 | 57.82220 | 41.30660 | 34781 ft | 486 kts | 67° |
| 2026-05-05 12:33 | 57.84731 | 41.42427 | 34785 ft | 486 kts | 66° |
| 2026-05-05 12:34 | 57.87307 | 41.54145 | 34779 ft | 485 kts | 66° |
| 2026-05-05 12:34 | 57.89877 | 41.65765 | 34777 ft | 485 kts | 66° |
| 2026-05-05 12:35 | 57.92449 | 41.77485 | 34779 ft | 484 kts | 66° |
| 2026-05-05 12:35 | 57.94984 | 41.89209 | 34781 ft | 484 kts | 66° |
| 2026-05-05 12:36 | 57.97513 | 42.00951 | 34777 ft | 483 kts | 66° |
| 2026-05-05 12:36 | 58.00026 | 42.12692 | 34776 ft | 483 kts | 67° |
| 2026-05-05 12:37 | 58.02533 | 42.24458 | 34777 ft | 483 kts | 67° |
| 2026-05-05 12:37 | 58.05021 | 42.36216 | 34776 ft | 482 kts | 67° |
| 2026-05-05 12:38 | 58.07501 | 42.47989 | 34767 ft | 482 kts | 67° |
| 2026-05-05 12:38 | 58.09964 | 42.59767 | 34761 ft | 482 kts | 67° |
| 2026-05-05 12:39 | 58.12439 | 42.71625 | 34763 ft | 482 kts | 67° |
| 2026-05-05 12:39 | 58.14872 | 42.83343 | 34760 ft | 481 kts | 67° |
| 2026-05-05 12:40 | 58.17317 | 42.95229 | 34762 ft | 481 kts | 68° |
| 2026-05-05 12:40 | 58.19713 | 43.06960 | 34760 ft | 481 kts | 68° |
| 2026-05-05 12:41 | 58.22139 | 43.18866 | 34757 ft | 480 kts | 68° |
| 2026-05-05 12:41 | 58.24539 | 43.30697 | 34753 ft | 480 kts | 68° |
| 2026-05-05 12:42 | 58.26910 | 43.42548 | 34749 ft | 480 kts | 68° |
| 2026-05-05 12:42 | 58.29269 | 43.54399 | 34748 ft | 480 kts | 68° |
| 2026-05-05 12:43 | 58.31575 | 43.65982 | 34736 ft | 480 kts | 68° |
| 2026-05-05 12:43 | 58.33912 | 43.77778 | 34746 ft | 480 kts | 68° |
| 2026-05-05 12:44 | 58.36262 | 43.89755 | 34737 ft | 480 kts | 69° |
| 2026-05-05 12:44 | 58.38571 | 44.01602 | 34729 ft | 480 kts | 69° |
| 2026-05-05 12:45 | 58.40892 | 44.13544 | 34726 ft | 480 kts | 69° |
| 2026-05-05 12:45 | 58.43195 | 44.25501 | 34727 ft | 480 kts | 69° |
| 2026-05-05 12:46 | 58.45478 | 44.37474 | 34729 ft | 480 kts | 69° |
| 2026-05-05 12:46 | 58.47766 | 44.49460 | 34718 ft | 480 kts | 69° |
| 2026-05-05 12:47 | 58.50045 | 44.61465 | 34724 ft | 480 kts | 69° |
| 2026-05-05 12:47 | 58.52298 | 44.73487 | 34727 ft | 480 kts | 69° |
| 2026-05-05 12:48 | 58.54537 | 44.85536 | 34707 ft | 480 kts | 69° |
| 2026-05-05 12:48 | 58.56776 | 44.97590 | 34714 ft | 480 kts | 69° |
| 2026-05-05 12:49 | 58.59000 | 45.09656 | 34732 ft | 480 kts | 70° |
| 2026-05-05 12:49 | 58.61216 | 45.21740 | 34712 ft | 480 kts | 70° |
| 2026-05-05 12:50 | 58.63426 | 45.33844 | 34710 ft | 480 kts | 70° |
| 2026-05-05 12:50 | 58.65622 | 45.45954 | 34704 ft | 480 kts | 70° |
| 2026-05-05 12:51 | 58.67796 | 45.58083 | 34707 ft | 481 kts | 70° |
| 2026-05-05 12:51 | 58.69965 | 45.70242 | 34703 ft | 481 kts | 70° |
| 2026-05-05 12:52 | 58.72127 | 45.82414 | 34703 ft | 481 kts | 70° |
| 2026-05-05 12:52 | 58.74276 | 45.94595 | 34699 ft | 481 kts | 70° |
| 2026-05-05 12:53 | 58.76417 | 46.06815 | 34698 ft | 481 kts | 70° |
| 2026-05-05 12:53 | 58.78550 | 46.19046 | 34695 ft | 481 kts | 71° |
| 2026-05-05 12:54 | 58.81722 | 46.37424 | 34693 ft | 482 kts | 71° |
| 2026-05-05 12:55 | 58.83815 | 46.49703 | 34690 ft | 482 kts | 71° |
| 2026-05-05 12:55 | 58.85902 | 46.62003 | 34691 ft | 482 kts | 71° |
| 2026-05-05 12:56 | 58.87981 | 46.74303 | 34688 ft | 482 kts | 71° |
| 2026-05-05 12:56 | 58.90054 | 46.86632 | 34691 ft | 482 kts | 71° |
| 2026-05-05 12:57 | 58.92108 | 46.98975 | 34686 ft | 482 kts | 71° |
| 2026-05-05 12:57 | 58.93802 | 47.09235 | 34687 ft | 482 kts | 71° |
| 2026-05-05 12:58 | 58.95834 | 47.21612 | 34687 ft | 482 kts | 71° |
| 2026-05-05 12:58 | 58.97857 | 47.34010 | 34683 ft | 482 kts | 72° |
| 2026-05-05 12:59 | 58.99864 | 47.46409 | 34680 ft | 482 kts | 72° |
| 2026-05-05 12:59 | 59.01864 | 47.58836 | 34676 ft | 482 kts | 72° |
| 2026-05-05 13:00 | 59.04847 | 47.77505 | 34673 ft | 483 kts | 72° |
| 2026-05-05 13:01 | 59.08772 | 48.02475 | 34672 ft | 483 kts | 72° |
| 2026-05-05 13:01 | 59.10725 | 48.14983 | 34673 ft | 483 kts | 72° |
| 2026-05-05 13:02 | 59.12666 | 48.27504 | 34678 ft | 483 kts | 72° |
| 2026-05-05 13:02 | 59.14594 | 48.40057 | 34675 ft | 483 kts | 72° |
| 2026-05-05 13:03 | 59.16504 | 48.52605 | 34676 ft | 483 kts | 72° |
| 2026-05-05 13:03 | 59.18411 | 48.65183 | 34682 ft | 483 kts | 73° |
| 2026-05-05 13:04 | 59.20292 | 48.77760 | 34681 ft | 483 kts | 75° |
| 2026-05-05 13:04 | 59.21519 | 48.90653 | 34684 ft | 483 kts | 80° |
| 2026-05-05 13:05 | 59.22628 | 49.03601 | 34681 ft | 483 kts | 80° |
| 2026-05-05 13:05 | 59.23726 | 49.16532 | 34687 ft | 483 kts | 81° |
| 2026-05-05 13:06 | 59.24803 | 49.29481 | 34686 ft | 483 kts | 81° |
| 2026-05-05 13:06 | 59.25869 | 49.42454 | 34690 ft | 483 kts | 81° |
| 2026-05-05 13:07 | 59.26929 | 49.55402 | 34686 ft | 483 kts | 81° |
| 2026-05-05 13:07 | 59.27970 | 49.68386 | 34687 ft | 483 kts | 81° |
| 2026-05-05 13:08 | 59.28997 | 49.81371 | 34688 ft | 483 kts | 81° |
| 2026-05-05 13:08 | 59.30014 | 49.94352 | 34691 ft | 483 kts | 81° |
| 2026-05-05 13:09 | 59.31018 | 50.07344 | 34692 ft | 483 kts | 81° |
| 2026-05-05 13:09 | 59.32001 | 50.20267 | 34692 ft | 483 kts | 82° |
| 2026-05-05 13:10 | 59.32974 | 50.33276 | 34694 ft | 483 kts | 82° |
| 2026-05-05 13:10 | 59.33940 | 50.46274 | 34697 ft | 483 kts | 82° |
| 2026-05-05 13:11 | 59.34899 | 50.59298 | 34698 ft | 483 kts | 82° |
| 2026-05-05 13:11 | 59.35824 | 50.72319 | 34699 ft | 483 kts | 82° |
| 2026-05-05 13:12 | 59.36740 | 50.85345 | 34701 ft | 482 kts | 82° |
| 2026-05-05 13:12 | 59.37625 | 50.98389 | 34698 ft | 482 kts | 82° |
| 2026-05-05 13:13 | 59.38476 | 51.11428 | 34698 ft | 482 kts | 83° |
| 2026-05-05 13:13 | 59.39323 | 51.24481 | 34700 ft | 482 kts | 83° |
| 2026-05-05 13:14 | 59.40166 | 51.37531 | 34699 ft | 482 kts | 83° |
| 2026-05-05 13:14 | 59.40988 | 51.50594 | 34698 ft | 482 kts | 83° |
| 2026-05-05 13:15 | 59.41796 | 51.63661 | 34698 ft | 482 kts | 83° |
| 2026-05-05 13:15 | 59.42594 | 51.76725 | 34700 ft | 482 kts | 83° |
| 2026-05-05 13:16 | 59.43386 | 51.89806 | 34699 ft | 482 kts | 83° |
| 2026-05-05 13:16 | 59.44159 | 52.02884 | 34704 ft | 482 kts | 83° |
| 2026-05-05 13:17 | 59.44920 | 52.15975 | 34701 ft | 482 kts | 83° |
| 2026-05-05 13:17 | 59.45673 | 52.29077 | 34706 ft | 482 kts | 84° |
| 2026-05-05 13:18 | 59.46419 | 52.42165 | 34708 ft | 482 kts | 83° |
| 2026-05-05 13:18 | 59.47148 | 52.55255 | 34708 ft | 481 kts | 84° |
| 2026-05-05 13:19 | 59.47858 | 52.68348 | 34716 ft | 481 kts | 84° |
| 2026-05-05 13:19 | 59.48552 | 52.81440 | 34711 ft | 481 kts | 84° |
| 2026-05-05 13:20 | 59.49241 | 52.94523 | 34713 ft | 481 kts | 84° |
| 2026-05-05 13:20 | 59.49921 | 53.07605 | 34713 ft | 480 kts | 84° |
| 2026-05-05 13:21 | 59.50573 | 53.20692 | 34729 ft | 480 kts | 85° |
| 2026-05-05 13:21 | 59.51075 | 53.33790 | 34720 ft | 480 kts | 86° |
| 2026-05-05 13:22 | 59.51479 | 53.46906 | 34721 ft | 479 kts | 86° |
| 2026-05-05 13:22 | 59.51879 | 53.60012 | 34717 ft | 479 kts | 86° |
| 2026-05-05 13:23 | 59.52292 | 53.73108 | 34713 ft | 479 kts | 86° |
| 2026-05-05 13:23 | 59.52702 | 53.86208 | 34722 ft | 479 kts | 86° |
| 2026-05-05 13:24 | 59.53092 | 53.99288 | 34734 ft | 479 kts | 86° |
| 2026-05-05 13:24 | 59.53480 | 54.12384 | 34728 ft | 478 kts | 87° |
| 2026-05-05 13:25 | 59.53853 | 54.25459 | 34724 ft | 478 kts | 87° |
| 2026-05-05 13:25 | 59.54206 | 54.38534 | 34727 ft | 478 kts | 87° |
| 2026-05-05 13:26 | 59.54540 | 54.51597 | 34730 ft | 477 kts | 87° |
| 2026-05-05 13:26 | 59.54798 | 54.62384 | 34726 ft | 477 kts | 87° |
| 2026-05-05 13:27 | 59.55116 | 54.75446 | 34735 ft | 477 kts | 87° |
| 2026-05-05 13:27 | 59.55428 | 54.88482 | 34732 ft | 476 kts | 87° |
| 2026-05-05 13:28 | 59.55722 | 55.01539 | 34735 ft | 476 kts | 88° |
| 2026-05-05 13:28 | 59.55998 | 55.14575 | 34749 ft | 476 kts | 88° |
| 2026-05-05 13:29 | 59.56259 | 55.27628 | 34751 ft | 476 kts | 88° |
| 2026-05-05 13:29 | 59.56513 | 55.40662 | 34738 ft | 476 kts | 88° |
| 2026-05-05 13:30 | 59.56750 | 55.53695 | 34741 ft | 475 kts | 88° |
| 2026-05-05 13:30 | 59.56967 | 55.66728 | 34744 ft | 475 kts | 88° |
| 2026-05-05 13:31 | 59.57183 | 55.79747 | 34754 ft | 475 kts | 88° |
| 2026-05-05 13:31 | 59.57386 | 55.92775 | 34742 ft | 475 kts | 88° |
| 2026-05-05 13:32 | 59.57570 | 56.05800 | 34756 ft | 475 kts | 88° |
| 2026-05-05 13:32 | 59.57741 | 56.18806 | 34753 ft | 475 kts | 88° |
| 2026-05-05 13:33 | 59.57907 | 56.31745 | 34750 ft | 475 kts | 88° |
| 2026-05-05 13:33 | 59.58058 | 56.44757 | 34760 ft | 474 kts | 88° |
| 2026-05-05 13:34 | 59.58190 | 56.57778 | 34766 ft | 474 kts | 88° |
| 2026-05-05 13:34 | 59.58311 | 56.70797 | 34756 ft | 474 kts | 89° |
| 2026-05-05 13:35 | 59.58421 | 56.83805 | 34772 ft | 474 kts | 89° |
| 2026-05-05 13:35 | 59.58514 | 56.96910 | 34773 ft | 474 kts | 89° |
| 2026-05-05 13:36 | 59.58598 | 57.09833 | 34769 ft | 474 kts | 89° |
| 2026-05-05 13:36 | 59.58667 | 57.22820 | 34783 ft | 474 kts | 89° |
| 2026-05-05 13:37 | 59.58713 | 57.33704 | 34773 ft | 473 kts | 89° |
| 2026-05-05 13:37 | 59.58758 | 57.48795 | 34784 ft | 473 kts | 89° |
| 2026-05-05 13:38 | 59.58781 | 57.59663 | 34792 ft | 472 kts | 89° |
| 2026-05-05 13:38 | 59.58805 | 57.74715 | 34797 ft | 472 kts | 89° |
| 2026-05-05 13:39 | 59.58808 | 57.87631 | 34801 ft | 472 kts | 89° |
| 2026-05-05 13:39 | 59.58807 | 58.00600 | 34804 ft | 471 kts | 89° |
| 2026-05-05 13:40 | 59.58813 | 58.13530 | 34794 ft | 471 kts | 89° |
| 2026-05-05 13:40 | 59.58809 | 58.24351 | 34802 ft | 471 kts | 89° |
| 2026-05-05 13:41 | 59.58773 | 58.39375 | 34797 ft | 471 kts | 89° |
| 2026-05-05 13:41 | 59.58741 | 58.50191 | 34797 ft | 471 kts | 89° |
| 2026-05-05 13:42 | 59.58684 | 58.63095 | 34798 ft | 470 kts | 89° |
| 2026-05-05 13:42 | 59.58622 | 58.76014 | 34800 ft | 470 kts | 89° |
| 2026-05-05 13:43 | 59.58549 | 58.88913 | 34816 ft | 470 kts | 90° |
| 2026-05-05 13:43 | 59.58454 | 59.01818 | 34801 ft | 470 kts | 90° |
| 2026-05-05 13:44 | 59.58999 | 59.14595 | 34811 ft | 466 kts | 76° |
| 2026-05-05 13:44 | 59.60348 | 59.27108 | 34806 ft | 466 kts | 76° |
| 2026-05-05 13:45 | 59.61669 | 59.39654 | 34799 ft | 466 kts | 76° |
| 2026-05-05 13:45 | 59.62970 | 59.52114 | 34804 ft | 466 kts | 76° |
| 2026-05-05 13:46 | 59.64271 | 59.64666 | 34794 ft | 466 kts | 76° |
| 2026-05-05 13:46 | 59.65551 | 59.77232 | 34800 ft | 466 kts | 76° |
| 2026-05-05 13:47 | 59.66828 | 59.89804 | 34807 ft | 466 kts | 76° |
| 2026-05-05 13:47 | 59.68091 | 60.02373 | 34792 ft | 466 kts | 77° |
| 2026-05-05 13:48 | 59.69342 | 60.14952 | 34791 ft | 466 kts | 77° |
| 2026-05-05 13:48 | 59.70575 | 60.27524 | 34799 ft | 466 kts | 77° |
| 2026-05-05 13:49 | 59.71802 | 60.40133 | 34800 ft | 466 kts | 77° |
| 2026-05-05 13:49 | 59.73021 | 60.52732 | 34801 ft | 465 kts | 77° |
| 2026-05-05 13:50 | 59.74233 | 60.65336 | 34805 ft | 465 kts | 77° |
| 2026-05-05 13:50 | 59.75425 | 60.77928 | 34805 ft | 465 kts | 77° |
| 2026-05-05 13:51 | 59.76597 | 60.90550 | 34811 ft | 465 kts | 77° |
| 2026-05-05 13:51 | 59.77756 | 61.03161 | 34809 ft | 465 kts | 77° |
| 2026-05-05 13:52 | 59.78907 | 61.15776 | 34817 ft | 464 kts | 77° |
| 2026-05-05 13:52 | 59.80051 | 61.28397 | 34816 ft | 464 kts | 78° |
| 2026-05-05 13:53 | 59.81166 | 61.41026 | 34818 ft | 464 kts | 78° |
| 2026-05-05 13:53 | 59.82281 | 61.53670 | 34818 ft | 464 kts | 78° |
| 2026-05-05 13:54 | 59.83387 | 61.66316 | 34823 ft | 464 kts | 78° |
| 2026-05-05 13:54 | 59.84488 | 61.78957 | 34824 ft | 464 kts | 78° |
| 2026-05-05 13:55 | 59.85567 | 61.91611 | 34827 ft | 464 kts | 78° |
| 2026-05-05 13:55 | 59.86622 | 62.04280 | 34826 ft | 464 kts | 78° |
| 2026-05-05 13:56 | 59.87673 | 62.16945 | 34834 ft | 464 kts | 78° |
| 2026-05-05 13:56 | 59.88711 | 62.29601 | 34836 ft | 463 kts | 78° |
| 2026-05-05 13:57 | 59.89737 | 62.42264 | 34841 ft | 463 kts | 78° |
| 2026-05-05 13:57 | 59.90773 | 62.54924 | 34843 ft | 462 kts | 78° |
| 2026-05-05 13:58 | 59.91801 | 62.67566 | 34843 ft | 462 kts | 78° |
| 2026-05-05 13:58 | 59.92798 | 62.80214 | 34843 ft | 462 kts | 79° |
| 2026-05-05 13:59 | 59.94271 | 62.99189 | 34850 ft | 462 kts | 79° |
| 2026-05-05 14:00 | 59.95553 | 63.16052 | 34851 ft | 461 kts | 79° |
| 2026-05-05 14:00 | 59.96676 | 63.30843 | 34849 ft | 461 kts | 79° |
| 2026-05-05 14:01 | 59.97619 | 63.43520 | 34853 ft | 461 kts | 79° |
| 2026-05-05 14:01 | 59.98542 | 63.56188 | 34855 ft | 461 kts | 79° |
| 2026-05-05 14:02 | 59.99459 | 63.68855 | 34862 ft | 461 kts | 79° |
| 2026-05-05 14:02 | 60.00363 | 63.81533 | 34854 ft | 461 kts | 79° |
| 2026-05-05 14:03 | 60.01238 | 63.94220 | 34859 ft | 461 kts | 81° |
| 2026-05-05 14:03 | 60.01521 | 64.07061 | 34865 ft | 463 kts | 86° |
| 2026-05-05 14:04 | 60.01712 | 64.19916 | 34865 ft | 462 kts | 86° |
| 2026-05-05 14:04 | 60.01888 | 64.32765 | 34868 ft | 462 kts | 86° |
| 2026-05-05 14:05 | 60.02036 | 64.45601 | 34869 ft | 462 kts | 86° |
| 2026-05-05 14:05 | 60.02179 | 64.58433 | 34876 ft | 462 kts | 87° |
| 2026-05-05 14:06 | 60.02305 | 64.71282 | 34879 ft | 462 kts | 87° |
| 2026-05-05 14:06 | 60.02416 | 64.84115 | 34878 ft | 461 kts | 87° |
| 2026-05-05 14:07 | 60.02514 | 64.96938 | 34876 ft | 461 kts | 87° |
| 2026-05-05 14:07 | 60.02615 | 65.09775 | 34940 ft | 463 kts | 87° |
| 2026-05-05 14:08 | 60.02660 | 65.16227 | 35091 ft | 465 kts | 87° |
| 2026-05-05 14:08 | 60.02696 | 65.22692 | 35270 ft | 465 kts | 88° |
| 2026-05-05 14:08 | 60.02723 | 65.29168 | 35452 ft | 466 kts | 88° |
| 2026-05-05 14:08 | 60.02751 | 65.35638 | 35630 ft | 466 kts | 88° |
| 2026-05-05 14:09 | 60.02780 | 65.42121 | 35804 ft | 466 kts | 88° |
| 2026-05-05 14:09 | 60.02802 | 65.48609 | 35977 ft | 466 kts | 88° |
| 2026-05-05 14:09 | 60.02818 | 65.55092 | 36142 ft | 467 kts | 88° |
| 2026-05-05 14:09 | 60.02837 | 65.61579 | 36301 ft | 467 kts | 88° |
| 2026-05-05 14:10 | 60.02860 | 65.68085 | 36462 ft | 467 kts | 88° |
| 2026-05-05 14:10 | 60.02880 | 65.74588 | 36617 ft | 468 kts | 88° |
| 2026-05-05 14:10 | 60.02897 | 65.81085 | 36778 ft | 467 kts | 88° |
| 2026-05-05 14:10 | 60.02903 | 65.87599 | 36884 ft | 468 kts | 89° |
| 2026-05-05 14:11 | 60.02907 | 66.00619 | 36889 ft | 468 kts | 89° |
| 2026-05-05 14:11 | 60.02888 | 66.13645 | 36889 ft | 468 kts | 89° |
| 2026-05-05 14:12 | 60.02875 | 66.26658 | 36893 ft | 468 kts | 89° |
| 2026-05-05 14:12 | 60.02839 | 66.39582 | 36890 ft | 468 kts | 89° |
| 2026-05-05 14:13 | 60.02775 | 66.52589 | 36894 ft | 468 kts | 89° |
| 2026-05-05 14:13 | 60.02649 | 66.65586 | 36894 ft | 468 kts | 95° |
| 2026-05-05 14:14 | 60.01909 | 66.78504 | 36897 ft | 468 kts | 96° |
| 2026-05-05 14:14 | 60.01157 | 66.91430 | 36899 ft | 468 kts | 96° |
| 2026-05-05 14:15 | 60.00393 | 67.04363 | 36901 ft | 468 kts | 96° |
| 2026-05-05 14:15 | 59.99616 | 67.17264 | 36905 ft | 468 kts | 96° |
| 2026-05-05 14:16 | 59.98822 | 67.30166 | 36906 ft | 468 kts | 96° |
| 2026-05-05 14:16 | 59.98011 | 67.43061 | 36899 ft | 468 kts | 96° |
| 2026-05-05 14:17 | 59.97194 | 67.55954 | 36903 ft | 468 kts | 97° |
| 2026-05-05 14:17 | 59.96360 | 67.68821 | 36902 ft | 468 kts | 97° |
| 2026-05-05 14:18 | 59.95512 | 67.81697 | 36907 ft | 468 kts | 97° |
| 2026-05-05 14:18 | 59.94657 | 67.94559 | 36906 ft | 468 kts | 97° |
| 2026-05-05 14:19 | 59.93792 | 68.07416 | 36900 ft | 468 kts | 97° |
| 2026-05-05 14:19 | 59.92913 | 68.20258 | 36904 ft | 468 kts | 97° |
| 2026-05-05 14:20 | 59.92014 | 68.33105 | 36911 ft | 468 kts | 97° |
| 2026-05-05 14:20 | 59.91110 | 68.45936 | 36913 ft | 468 kts | 98° |
| 2026-05-05 14:21 | 59.90192 | 68.58758 | 36902 ft | 468 kts | 98° |
| 2026-05-05 14:21 | 59.89256 | 68.71569 | 36904 ft | 468 kts | 98° |
| 2026-05-05 14:22 | 59.88462 | 68.82218 | 36916 ft | 468 kts | 98° |
| 2026-05-05 14:22 | 59.87494 | 68.95095 | 36910 ft | 468 kts | 98° |
| 2026-05-05 14:23 | 59.86531 | 69.07821 | 36913 ft | 468 kts | 98° |
| 2026-05-05 14:23 | 59.85552 | 69.20620 | 36912 ft | 468 kts | 98° |
| 2026-05-05 14:24 | 59.84549 | 69.33499 | 36898 ft | 468 kts | 99° |
| 2026-05-05 14:24 | 59.83544 | 69.46214 | 36904 ft | 469 kts | 99° |
| 2026-05-05 14:25 | 59.82514 | 69.59096 | 36909 ft | 469 kts | 99° |
| 2026-05-05 14:25 | 59.81479 | 69.71899 | 36903 ft | 469 kts | 99° |
| 2026-05-05 14:26 | 59.80435 | 69.84694 | 36903 ft | 469 kts | 99° |
| 2026-05-05 14:26 | 59.79381 | 69.97490 | 36894 ft | 470 kts | 99° |
| 2026-05-05 14:27 | 59.78309 | 70.10288 | 36901 ft | 470 kts | 99° |
| 2026-05-05 14:27 | 59.77220 | 70.23103 | 36898 ft | 470 kts | 99° |
| 2026-05-05 14:28 | 59.76124 | 70.35895 | 36897 ft | 471 kts | 100° |
| 2026-05-05 14:28 | 59.75015 | 70.48700 | 36898 ft | 471 kts | 100° |
| 2026-05-05 14:29 | 59.73895 | 70.61501 | 36894 ft | 471 kts | 100° |
| 2026-05-05 14:29 | 59.72764 | 70.74304 | 36901 ft | 472 kts | 100° |
| 2026-05-05 14:30 | 59.71605 | 70.87096 | 36893 ft | 472 kts | 101° |
| 2026-05-05 14:30 | 59.70433 | 70.99888 | 36899 ft | 472 kts | 101° |
| 2026-05-05 14:31 | 59.69259 | 71.12688 | 36895 ft | 473 kts | 101° |
| 2026-05-05 14:31 | 59.68075 | 71.25487 | 36895 ft | 473 kts | 101° |
| 2026-05-05 14:32 | 59.66875 | 71.38289 | 36899 ft | 473 kts | 101° |
| 2026-05-05 14:32 | 59.65658 | 71.51074 | 36895 ft | 474 kts | 101° |
| 2026-05-05 14:33 | 59.64422 | 71.63879 | 36892 ft | 474 kts | 101° |
| 2026-05-05 14:33 | 59.63187 | 71.76590 | 36902 ft | 474 kts | 101° |
| 2026-05-05 14:34 | 59.61935 | 71.89379 | 36901 ft | 474 kts | 101° |
| 2026-05-05 14:34 | 59.60669 | 72.02170 | 36903 ft | 475 kts | 102° |
| 2026-05-05 14:35 | 59.59389 | 72.14958 | 36905 ft | 475 kts | 102° |
| 2026-05-05 14:35 | 59.58089 | 72.27734 | 36905 ft | 475 kts | 102° |
| 2026-05-05 14:36 | 59.56778 | 72.40492 | 36904 ft | 475 kts | 102° |
| 2026-05-05 14:36 | 59.55458 | 72.53263 | 36899 ft | 475 kts | 102° |
| 2026-05-05 14:37 | 59.54130 | 72.66033 | 36898 ft | 475 kts | 102° |
| 2026-05-05 14:37 | 59.52789 | 72.78784 | 36892 ft | 475 kts | 103° |
| 2026-05-05 14:38 | 59.51422 | 72.91517 | 36895 ft | 476 kts | 103° |
| 2026-05-05 14:38 | 59.50044 | 73.04259 | 36897 ft | 476 kts | 103° |
| 2026-05-05 14:39 | 59.48667 | 73.17013 | 36896 ft | 476 kts | 103° |
| 2026-05-05 14:39 | 59.47270 | 73.29764 | 36903 ft | 477 kts | 103° |
| 2026-05-05 14:40 | 59.45853 | 73.42508 | 36906 ft | 477 kts | 103° |
| 2026-05-05 14:40 | 59.44420 | 73.55253 | 36907 ft | 478 kts | 103° |
| 2026-05-05 14:41 | 59.42977 | 73.67992 | 36911 ft | 478 kts | 103° |
| 2026-05-05 14:41 | 59.41525 | 73.80740 | 36905 ft | 478 kts | 103° |
| 2026-05-05 14:42 | 59.40058 | 73.93470 | 36907 ft | 478 kts | 104° |
| 2026-05-05 14:42 | 59.38578 | 74.06190 | 36912 ft | 479 kts | 104° |
| 2026-05-05 14:43 | 59.37087 | 74.18915 | 36907 ft | 479 kts | 104° |
| 2026-05-05 14:43 | 59.35588 | 74.31629 | 36908 ft | 479 kts | 104° |
| 2026-05-05 14:44 | 59.34059 | 74.44347 | 36908 ft | 479 kts | 104° |
| 2026-05-05 14:44 | 59.32564 | 74.57057 | 36907 ft | 479 kts | 103° |
| 2026-05-05 14:45 | 59.31239 | 74.69857 | 36905 ft | 480 kts | 102° |
| 2026-05-05 14:45 | 59.29963 | 74.82668 | 36900 ft | 479 kts | 102° |
| 2026-05-05 14:46 | 59.28628 | 74.95444 | 36902 ft | 479 kts | 103° |
| 2026-05-05 14:46 | 59.27235 | 75.08199 | 36895 ft | 480 kts | 103° |
| 2026-05-05 14:47 | 59.25831 | 75.20952 | 36896 ft | 480 kts | 103° |
| 2026-05-05 14:47 | 59.24428 | 75.33710 | 36894 ft | 480 kts | 103° |
| 2026-05-05 14:48 | 59.23018 | 75.46459 | 36894 ft | 481 kts | 103° |
| 2026-05-05 14:48 | 59.21592 | 75.59211 | 36894 ft | 481 kts | 103° |
| 2026-05-05 14:49 | 59.20145 | 75.71940 | 36894 ft | 481 kts | 103° |
| 2026-05-05 14:49 | 59.18682 | 75.84678 | 36897 ft | 481 kts | 103° |
| 2026-05-05 14:50 | 59.17224 | 75.97426 | 36900 ft | 482 kts | 104° |
| 2026-05-05 14:50 | 59.15956 | 76.08333 | 36898 ft | 482 kts | 104° |
| 2026-05-05 14:51 | 59.14457 | 76.21054 | 36896 ft | 482 kts | 104° |
| 2026-05-05 14:51 | 59.12944 | 76.33772 | 36893 ft | 482 kts | 104° |
| 2026-05-05 14:52 | 59.11419 | 76.46476 | 36895 ft | 483 kts | 104° |
| 2026-05-05 14:52 | 59.09882 | 76.59195 | 36900 ft | 483 kts | 104° |
| 2026-05-05 14:53 | 59.08341 | 76.71930 | 36902 ft | 484 kts | 104° |
| 2026-05-05 14:53 | 59.06788 | 76.84666 | 36906 ft | 484 kts | 104° |
| 2026-05-05 14:54 | 59.05217 | 76.97369 | 36906 ft | 484 kts | 104° |
| 2026-05-05 14:54 | 59.03626 | 77.10082 | 36908 ft | 484 kts | 104° |
| 2026-05-05 14:55 | 59.02029 | 77.22789 | 36906 ft | 484 kts | 105° |
| 2026-05-05 14:55 | 59.00415 | 77.35472 | 36902 ft | 484 kts | 105° |
| 2026-05-05 14:56 | 58.98797 | 77.48142 | 36898 ft | 485 kts | 105° |
| 2026-05-05 14:56 | 58.97169 | 77.60826 | 36895 ft | 485 kts | 105° |
| 2026-05-05 14:57 | 58.95524 | 77.73496 | 36892 ft | 485 kts | 105° |
| 2026-05-05 14:57 | 58.93858 | 77.86159 | 36893 ft | 485 kts | 105° |
| 2026-05-05 14:58 | 58.92178 | 77.98830 | 36892 ft | 486 kts | 105° |
| 2026-05-05 14:58 | 58.90490 | 78.11495 | 36895 ft | 486 kts | 105° |
| 2026-05-05 14:59 | 58.88791 | 78.24149 | 36894 ft | 487 kts | 105° |
| 2026-05-05 14:59 | 58.87073 | 78.36787 | 36894 ft | 487 kts | 105° |
| 2026-05-05 15:00 | 58.85627 | 78.47310 | 36893 ft | 487 kts | 105° |
| 2026-05-05 15:00 | 58.83594 | 78.62091 | 36889 ft | 488 kts | 105° |
| 2026-05-05 15:01 | 58.81842 | 78.74739 | 36896 ft | 488 kts | 106° |
| 2026-05-05 15:01 | 58.80074 | 78.87385 | 36897 ft | 488 kts | 106° |
| 2026-05-05 15:02 | 58.78288 | 79.00002 | 36894 ft | 488 kts | 106° |
| 2026-05-05 15:02 | 58.76499 | 79.12545 | 36882 ft | 488 kts | 106° |
| 2026-05-05 15:03 | 58.74689 | 79.25144 | 36889 ft | 489 kts | 106° |
| 2026-05-05 15:03 | 58.72863 | 79.37757 | 36895 ft | 489 kts | 106° |
| 2026-05-05 15:04 | 58.71327 | 79.48319 | 36891 ft | 490 kts | 106° |
| 2026-05-05 15:04 | 58.69177 | 79.62970 | 36902 ft | 490 kts | 107° |
| 2026-05-05 15:05 | 58.67040 | 79.82164 | 36904 ft | 490 kts | 101° |
| 2026-05-05 15:06 | 58.65559 | 79.92756 | 36899 ft | 490 kts | 108° |
| 2026-05-05 15:06 | 58.63541 | 80.05258 | 36903 ft | 490 kts | 108° |
| 2026-05-05 15:07 | 58.61485 | 80.17732 | 36902 ft | 491 kts | 108° |
| 2026-05-05 15:07 | 58.59416 | 80.30209 | 36906 ft | 491 kts | 108° |
| 2026-05-05 15:08 | 58.57353 | 80.42687 | 36908 ft | 491 kts | 108° |
| 2026-05-05 15:08 | 58.55281 | 80.55163 | 36903 ft | 491 kts | 108° |
| 2026-05-05 15:09 | 58.53206 | 80.67508 | 36901 ft | 491 kts | 109° |
| 2026-05-05 15:09 | 58.51097 | 80.79946 | 36900 ft | 492 kts | 109° |
| 2026-05-05 15:10 | 58.48974 | 80.92395 | 36906 ft | 492 kts | 109° |
| 2026-05-05 15:10 | 58.46846 | 81.04809 | 36905 ft | 492 kts | 109° |
| 2026-05-05 15:11 | 58.44705 | 81.17234 | 36904 ft | 492 kts | 109° |
| 2026-05-05 15:11 | 58.42553 | 81.29636 | 36906 ft | 493 kts | 109° |
| 2026-05-05 15:12 | 58.40386 | 81.42030 | 36902 ft | 493 kts | 109° |
| 2026-05-05 15:12 | 58.38199 | 81.54423 | 36905 ft | 493 kts | 109° |
| 2026-05-05 15:13 | 58.36004 | 81.66809 | 36909 ft | 493 kts | 109° |
| 2026-05-05 15:13 | 58.34921 | 81.72897 | 36776 ft | 470 kts | 109° |
| 2026-05-05 15:13 | 58.33900 | 81.78636 | 38624 ft | 448 kts | 109° |
| 2026-05-05 15:13 | 58.32925 | 81.84117 | 39181 ft | 428 kts | 109° |
| 2026-05-05 15:14 | 58.31951 | 81.89548 | 38113 ft | 444 kts | 109° |
| 2026-05-05 15:14 | 58.30921 | 81.95225 | 37322 ft | 465 kts | 109° |
| 2026-05-05 15:14 | 58.29847 | 82.01118 | 37045 ft | 477 kts | 109° |
| 2026-05-05 15:14 | 58.28748 | 82.07134 | 36848 ft | 485 kts | 109° |
| 2026-05-05 15:15 | 58.27640 | 82.13199 | 36910 ft | 489 kts | 109° |
| 2026-05-05 15:15 | 58.25399 | 82.25473 | 36900 ft | 493 kts | 109° |
| 2026-05-05 15:16 | 58.23142 | 82.37774 | 36907 ft | 494 kts | 110° |
| 2026-05-05 15:16 | 58.20865 | 82.50053 | 36901 ft | 494 kts | 110° |
| 2026-05-05 15:17 | 58.18571 | 82.62341 | 36902 ft | 494 kts | 110° |
| 2026-05-05 15:17 | 58.16273 | 82.74617 | 36910 ft | 494 kts | 110° |
| 2026-05-05 15:18 | 58.13960 | 82.86871 | 36904 ft | 494 kts | 110° |
| 2026-05-05 15:18 | 58.11634 | 82.99110 | 36901 ft | 494 kts | 110° |
| 2026-05-05 15:19 | 58.09294 | 83.11336 | 36907 ft | 494 kts | 110° |
| 2026-05-05 15:19 | 58.06946 | 83.23544 | 36907 ft | 495 kts | 110° |
| 2026-05-05 15:20 | 58.04572 | 83.35749 | 36904 ft | 495 kts | 110° |
| 2026-05-05 15:20 | 58.02190 | 83.47952 | 36909 ft | 496 kts | 110° |
| 2026-05-05 15:21 | 57.99807 | 83.60142 | 36917 ft | 496 kts | 110° |
| 2026-05-05 15:21 | 57.97403 | 83.72330 | 36917 ft | 496 kts | 110° |
| 2026-05-05 15:22 | 57.94988 | 83.84496 | 36913 ft | 496 kts | 110° |
| 2026-05-05 15:22 | 57.92556 | 83.96634 | 36916 ft | 496 kts | 110° |
| 2026-05-05 15:23 | 57.90118 | 84.08771 | 36916 ft | 496 kts | 110° |
| 2026-05-05 15:23 | 57.87669 | 84.20910 | 36912 ft | 497 kts | 111° |
| 2026-05-05 15:24 | 57.85202 | 84.33015 | 36916 ft | 497 kts | 111° |
| 2026-05-05 15:24 | 57.82722 | 84.45117 | 36913 ft | 497 kts | 111° |
| 2026-05-05 15:25 | 57.80232 | 84.57200 | 36915 ft | 497 kts | 111° |
| 2026-05-05 15:25 | 57.77725 | 84.69281 | 36916 ft | 497 kts | 111° |
| 2026-05-05 15:26 | 57.75214 | 84.81340 | 36918 ft | 497 kts | 111° |
| 2026-05-05 15:26 | 57.72693 | 84.93381 | 36919 ft | 497 kts | 111° |
| 2026-05-05 15:27 | 57.70154 | 85.05417 | 36918 ft | 497 kts | 111° |
| 2026-05-05 15:27 | 57.67605 | 85.17428 | 36917 ft | 497 kts | 111° |
| 2026-05-05 15:28 | 57.65046 | 85.29425 | 36915 ft | 497 kts | 111° |
| 2026-05-05 15:28 | 57.62470 | 85.41404 | 36918 ft | 497 kts | 111° |
| 2026-05-05 15:29 | 57.59889 | 85.53379 | 36922 ft | 498 kts | 111° |
| 2026-05-05 15:29 | 57.57295 | 85.65350 | 36924 ft | 498 kts | 111° |
| 2026-05-05 15:30 | 57.54685 | 85.77271 | 36926 ft | 498 kts | 111° |
| 2026-05-05 15:30 | 57.52061 | 85.89204 | 36930 ft | 497 kts | 111° |
| 2026-05-05 15:31 | 57.49438 | 86.01100 | 36934 ft | 498 kts | 111° |
| 2026-05-05 15:31 | 57.46794 | 86.12983 | 36942 ft | 498 kts | 112° |
| 2026-05-05 15:32 | 57.44141 | 86.24847 | 36939 ft | 497 kts | 112° |
| 2026-05-05 15:32 | 57.41478 | 86.36695 | 36943 ft | 497 kts | 112° |
| 2026-05-05 15:33 | 57.38804 | 86.48526 | 36950 ft | 497 kts | 112° |
| 2026-05-05 15:33 | 57.36124 | 86.60320 | 36944 ft | 497 kts | 112° |
| 2026-05-05 15:34 | 57.33435 | 86.72113 | 36951 ft | 497 kts | 112° |
| 2026-05-05 15:34 | 57.30726 | 86.83870 | 36948 ft | 497 kts | 112° |
| 2026-05-05 15:35 | 57.28014 | 86.95612 | 36953 ft | 496 kts | 112° |
| 2026-05-05 15:35 | 57.25294 | 87.07323 | 36952 ft | 496 kts | 112° |
| 2026-05-05 15:36 | 57.22558 | 87.19020 | 36955 ft | 496 kts | 112° |
| 2026-05-05 15:36 | 57.19818 | 87.30683 | 36959 ft | 496 kts | 112° |
| 2026-05-05 15:37 | 57.17074 | 87.42342 | 36966 ft | 496 kts | 112° |
| 2026-05-05 15:37 | 57.14309 | 87.53978 | 36965 ft | 495 kts | 112° |
| 2026-05-05 15:38 | 57.11535 | 87.65580 | 36966 ft | 495 kts | 112° |
| 2026-05-05 15:38 | 57.08758 | 87.77159 | 36970 ft | 495 kts | 112° |
| 2026-05-05 15:39 | 57.05969 | 87.88724 | 36974 ft | 495 kts | 112° |
| 2026-05-05 15:39 | 57.03173 | 88.00250 | 36977 ft | 494 kts | 113° |
| 2026-05-05 15:40 | 57.00356 | 88.11757 | 36983 ft | 494 kts | 113° |
| 2026-05-05 15:40 | 56.97537 | 88.23241 | 36982 ft | 494 kts | 113° |
| 2026-05-05 15:41 | 56.95280 | 88.35051 | 36988 ft | 490 kts | 102° |
| 2026-05-05 15:41 | 56.93596 | 88.47139 | 36988 ft | 490 kts | 102° |
| 2026-05-05 15:42 | 56.91901 | 88.59221 | 36990 ft | 490 kts | 102° |
| 2026-05-05 15:42 | 56.90189 | 88.71297 | 36995 ft | 490 kts | 102° |
| 2026-05-05 15:43 | 56.88757 | 88.81307 | 36994 ft | 490 kts | 102° |
| 2026-05-05 15:43 | 56.86731 | 88.95383 | 37003 ft | 489 kts | 102° |
| 2026-05-05 15:44 | 56.84984 | 89.07392 | 37005 ft | 489 kts | 102° |
| 2026-05-05 15:44 | 56.83222 | 89.19386 | 37007 ft | 489 kts | 102° |
| 2026-05-05 15:45 | 56.81460 | 89.31385 | 37012 ft | 489 kts | 103° |
| 2026-05-05 15:45 | 56.79682 | 89.43349 | 37017 ft | 489 kts | 103° |
| 2026-05-05 15:46 | 56.78194 | 89.53283 | 37016 ft | 488 kts | 103° |
| 2026-05-05 15:46 | 56.76393 | 89.65230 | 36716 ft | 489 kts | 103° |
| 2026-05-05 15:46 | 56.75490 | 89.71206 | 36465 ft | 489 kts | 103° |
| 2026-05-05 15:47 | 56.74582 | 89.77180 | 36220 ft | 489 kts | 103° |
| 2026-05-05 15:47 | 56.73671 | 89.83162 | 35966 ft | 490 kts | 103° |
| 2026-05-05 15:47 | 56.72756 | 89.89145 | 35721 ft | 490 kts | 103° |
| 2026-05-05 15:47 | 56.71839 | 89.95109 | 35251 ft | 489 kts | 102° |
| 2026-05-05 15:48 | 56.70925 | 90.01058 | 34648 ft | 489 kts | 102° |
| 2026-05-05 15:48 | 56.70000 | 90.07021 | 34068 ft | 488 kts | 102° |
| 2026-05-05 15:48 | 56.69072 | 90.12960 | 33413 ft | 488 kts | 102° |
| 2026-05-05 15:48 | 56.68144 | 90.18877 | 32842 ft | 486 kts | 102° |
| 2026-05-05 15:49 | 56.67219 | 90.24775 | 32262 ft | 484 kts | 102° |
| 2026-05-05 15:49 | 56.66299 | 90.30654 | 31681 ft | 483 kts | 101° |
| 2026-05-05 15:49 | 56.65378 | 90.36524 | 31109 ft | 482 kts | 101° |
| 2026-05-05 15:49 | 56.64456 | 90.42362 | 30549 ft | 481 kts | 101° |
| 2026-05-05 15:50 | 56.63530 | 90.48201 | 29967 ft | 480 kts | 101° |
| 2026-05-05 15:50 | 56.62602 | 90.54018 | 29387 ft | 477 kts | 102° |
| 2026-05-05 15:50 | 56.61680 | 90.59777 | 28852 ft | 473 kts | 102° |
| 2026-05-05 15:50 | 56.60765 | 90.65479 | 28327 ft | 469 kts | 102° |
| 2026-05-05 15:51 | 56.59854 | 90.71141 | 27809 ft | 465 kts | 103° |
| 2026-05-05 15:51 | 56.58953 | 90.76722 | 27405 ft | 457 kts | 103° |
| 2026-05-05 15:51 | 56.58069 | 90.82194 | 26778 ft | 449 kts | 104° |
| 2026-05-05 15:51 | 56.57192 | 90.87608 | 26287 ft | 445 kts | 104° |
| 2026-05-05 15:52 | 56.56323 | 90.92957 | 25878 ft | 439 kts | 104° |
| 2026-05-05 15:52 | 56.55464 | 90.98235 | 25349 ft | 436 kts | 105° |
| 2026-05-05 15:52 | 56.54615 | 91.03441 | 24861 ft | 425 kts | 105° |
| 2026-05-05 15:52 | 56.53779 | 91.08534 | 24216 ft | 417 kts | 106° |
| 2026-05-05 15:53 | 56.52950 | 91.13559 | 23724 ft | 415 kts | 106° |
| 2026-05-05 15:53 | 56.52128 | 91.18521 | 23245 ft | 410 kts | 107° |
| 2026-05-05 15:53 | 56.51308 | 91.23464 | 22761 ft | 406 kts | 107° |
| 2026-05-05 15:53 | 56.50499 | 91.28353 | 22191 ft | 405 kts | 107° |
| 2026-05-05 15:54 | 56.49698 | 91.33173 | 21651 ft | 395 kts | 107° |
| 2026-05-05 15:54 | 56.48910 | 91.37893 | 21149 ft | 391 kts | 107° |
| 2026-05-05 15:54 | 56.48119 | 91.42603 | 20669 ft | 390 kts | 107° |
| 2026-05-05 15:54 | 56.47332 | 91.47276 | 20190 ft | 388 kts | 107° |
| 2026-05-05 15:55 | 56.46545 | 91.51936 | 19724 ft | 387 kts | 107° |
| 2026-05-05 15:55 | 56.45757 | 91.56578 | 19276 ft | 385 kts | 107° |
| 2026-05-05 15:55 | 56.44972 | 91.61195 | 18811 ft | 384 kts | 107° |
| 2026-05-05 15:55 | 56.44201 | 91.65745 | 18343 ft | 375 kts | 107° |
| 2026-05-05 15:56 | 56.43449 | 91.70189 | 17842 ft | 366 kts | 107° |
| 2026-05-05 15:56 | 56.42705 | 91.74563 | 17395 ft | 364 kts | 108° |
| 2026-05-05 15:56 | 56.41961 | 91.78922 | 16970 ft | 362 kts | 108° |
| 2026-05-05 15:56 | 56.41218 | 91.83261 | 16540 ft | 361 kts | 108° |
| 2026-05-05 15:57 | 56.40475 | 91.87595 | 16116 ft | 360 kts | 108° |
| 2026-05-05 15:57 | 56.39734 | 91.91897 | 15697 ft | 359 kts | 108° |
| 2026-05-05 15:57 | 56.38991 | 91.96188 | 15268 ft | 358 kts | 108° |
| 2026-05-05 15:57 | 56.38250 | 92.00471 | 14852 ft | 357 kts | 108° |
| 2026-05-05 15:58 | 56.37509 | 92.04738 | 14431 ft | 356 kts | 108° |
| 2026-05-05 15:58 | 56.36773 | 92.08961 | 14058 ft | 354 kts | 108° |
| 2026-05-05 15:58 | 56.36038 | 92.13174 | 13691 ft | 350 kts | 108° |
| 2026-05-05 15:58 | 56.35307 | 92.17365 | 13283 ft | 348 kts | 108° |
| 2026-05-05 15:59 | 56.34585 | 92.21502 | 12746 ft | 344 kts | 109° |
| 2026-05-05 15:59 | 56.33874 | 92.25561 | 12310 ft | 335 kts | 109° |
| 2026-05-05 15:59 | 56.33171 | 92.29554 | 11902 ft | 334 kts | 109° |
| 2026-05-05 15:59 | 56.32466 | 92.33535 | 11482 ft | 333 kts | 109° |
| 2026-05-05 16:00 | 56.31761 | 92.37506 | 11067 ft | 332 kts | 110° |
| 2026-05-05 16:00 | 56.31066 | 92.41428 | 10884 ft | 324 kts | 110° |
| 2026-05-05 16:00 | 56.30398 | 92.45208 | 10587 ft | 311 kts | 110° |
| 2026-05-05 16:00 | 56.29747 | 92.48881 | 10064 ft | 305 kts | 110° |
| 2026-05-05 16:01 | 56.29106 | 92.52482 | 9482 ft | 300 kts | 111° |
| 2026-05-05 16:01 | 56.28472 | 92.56021 | 9013 ft | 295 kts | 111° |
| 2026-05-05 16:01 | 56.27840 | 92.59539 | 8560 ft | 296 kts | 111° |
| 2026-05-05 16:01 | 56.27210 | 92.63046 | 8217 ft | 292 kts | 111° |
| 2026-05-05 16:02 | 56.26591 | 92.66490 | 7731 ft | 284 kts | 111° |
| 2026-05-05 16:02 | 56.25872 | 92.69726 | 7328 ft | 277 kts | 117° |
| 2026-05-05 16:02 | 56.25100 | 92.72910 | 6890 ft | 279 kts | 116° |
| 2026-05-05 16:02 | 56.24329 | 92.76112 | 6468 ft | 279 kts | 116° |
| 2026-05-05 16:03 | 56.23535 | 92.79302 | 6020 ft | 278 kts | 122° |
| 2026-05-05 16:03 | 56.22272 | 92.81822 | 5565 ft | 270 kts | 150° |
| 2026-05-05 16:03 | 56.20568 | 92.83017 | 5152 ft | 261 kts | 176° |
| 2026-05-05 16:03 | 56.18799 | 92.82761 | 4721 ft | 254 kts | 201° |
| 2026-05-05 16:04 | 56.17178 | 92.81545 | 4292 ft | 252 kts | 206° |
| 2026-05-05 16:04 | 56.15579 | 92.80302 | 4042 ft | 247 kts | 206° |
| 2026-05-05 16:04 | 56.14046 | 92.79122 | 3963 ft | 230 kts | 206° |
| 2026-05-05 16:04 | 56.12632 | 92.78030 | 3880 ft | 216 kts | 208° |
| 2026-05-05 16:05 | 56.11582 | 92.76369 | 3758 ft | 196 kts | 244° |
| 2026-05-05 16:05 | 56.11400 | 92.74042 | 3599 ft | 191 kts | 282° |
| 2026-05-05 16:05 | 56.11884 | 92.71877 | 3406 ft | 184 kts | 290° |
| 2026-05-05 16:05 | 56.12386 | 92.69801 | 3146 ft | 178 kts | 290° |
| 2026-05-05 16:06 | 56.12854 | 92.67863 | 2925 ft | 164 kts | 289° |
| 2026-05-05 16:06 | 56.13285 | 92.66075 | 2711 ft | 146 kts | 289° |
| 2026-05-05 16:06 | 56.13676 | 92.64445 | 2514 ft | 140 kts | 289° |
| 2026-05-05 16:06 | 56.14055 | 92.62861 | 2330 ft | 138 kts | 290° |
| 2026-05-05 16:07 | 56.14433 | 92.61286 | 2142 ft | 137 kts | 290° |
| 2026-05-05 16:07 | 56.14809 | 92.59716 | 1933 ft | 137 kts | 290° |
| 2026-05-05 16:07 | 56.15185 | 92.58147 | 1742 ft | 137 kts | 291° |
| 2026-05-05 16:07 | 56.15561 | 92.56576 | 1541 ft | 137 kts | 291° |
| 2026-05-05 16:08 | 56.15938 | 92.55004 | 1356 ft | 137 kts | 292° |
| 2026-05-05 16:08 | 56.16317 | 92.53436 | 1165 ft | 136 kts | 291° |
| 2026-05-05 16:08 | 56.16694 | 92.51878 | 978 ft | 137 kts | 292° |
| 2026-05-05 16:08 | 56.16987 | 92.50584 | 953 ft | 108 kts | 298° |
| 2026-05-05 16:09 | 56.17224 | 92.49633 | 954 ft | 59 kts | 293° |
| 2026-05-05 16:09 | 56.17335 | 92.49153 | 953 ft | 36 kts | 294° |
| 2026-05-05 16:09 | 56.17405 | 92.48864 | 952 ft | 19 kts | 292° |
| 2026-05-05 16:09 | 56.17495 | 92.48698 | 954 ft | 19 kts | 325° |
| 2026-05-05 16:10 | 56.17550 | 92.48629 | 953 ft | 6 kts | 324° |
| 2026-05-05 16:10 | 56.17578 | 92.48594 | 952 ft | 4 kts | 325° |
| 2026-05-05 16:10 | 56.17605 | 92.48559 | 954 ft | 10 kts | 324° |
| 2026-05-05 16:10 | 56.17667 | 92.48478 | 953 ft | 11 kts | 325° |
| 2026-05-05 16:11 | 56.17733 | 92.48405 | 954 ft | 11 kts | 337° |
| 2026-05-05 16:11 | 56.17859 | 92.48548 | 955 ft | 5 kts | 89° |
| 2026-05-05 16:12 | 56.17881 | 92.48583 | 956 ft | 4 kts | 24° |
| 2026-05-05 16:12 | 56.17914 | 92.48609 | 954 ft | 1 kts | 24° |
| 2026-05-05 16:13 | 56.17929 | 92.48620 | 955 ft | 0 kts | 22° |